createdAt,value
2023-05-09T00:01:29.945Z,24.30
2023-05-09T00:03:59.829Z,23.10
2023-05-09T00:06:28.215Z,24.80
2023-05-09T00:08:56.796Z,24.27
2023-05-09T00:11:25.091Z,26.20
2023-05-09T00:13:53.347Z,24.37
2023-05-09T00:16:24.631Z,22.47
2023-05-09T00:18:53.449Z,23.07
2023-05-09T00:21:23.114Z,24.20
2023-05-09T00:23:51.349Z,24.27
2023-05-09T00:26:19.529Z,21.83
2023-05-09T00:28:47.788Z,23.53
2023-05-09T00:31:16.022Z,24.57
2023-05-09T00:33:44.287Z,22.60
2023-05-09T00:36:12.513Z,22.30
2023-05-09T00:38:42.122Z,23.87
2023-05-09T00:41:10.373Z,23.47
2023-05-09T00:43:38.574Z,23.30
2023-05-09T00:46:07.000Z,23.87
2023-05-09T00:48:35.265Z,23.80
2023-05-09T00:51:04.862Z,23.43
2023-05-09T00:53:33.129Z,24.53
2023-05-09T00:56:03.783Z,22.97
2023-05-09T00:58:32.250Z,22.27
2023-05-09T01:01:02.183Z,26.37
2023-05-09T01:03:30.839Z,22.63
2023-05-09T01:06:04.542Z,25.93
2023-05-09T01:08:38.196Z,25.23
2023-05-09T01:11:12.811Z,25.67
2023-05-09T01:13:46.142Z,24.67
2023-05-09T01:16:19.716Z,21.97
2023-05-09T01:18:51.612Z,27.20
2023-05-09T01:21:22.139Z,24.10
2023-05-09T01:24:02.410Z,24.97
2023-05-09T01:26:38.241Z,25.70
2023-05-09T01:29:18.213Z,26.03
2023-05-09T01:31:47.101Z,24.13
2023-05-09T01:34:16.833Z,23.50
2023-05-09T01:36:45.909Z,27.00
2023-05-09T01:39:14.904Z,28.30
2023-05-09T01:41:43.100Z,28.80
2023-05-09T01:44:13.158Z,27.10
2023-05-09T01:46:43.373Z,26.50
2023-05-09T01:49:12.959Z,18.17
2023-05-09T01:51:42.961Z,28.13
2023-05-09T01:54:12.871Z,25.20
2023-05-09T01:56:42.624Z,29.77
2023-05-09T01:59:15.925Z,29.47
2023-05-09T02:01:46.769Z,30.10
2023-05-09T02:04:15.945Z,27.60
2023-05-09T02:06:44.708Z,28.73
2023-05-09T02:09:13.100Z,30.40
2023-05-09T02:11:41.414Z,29.80
2023-05-09T02:14:09.692Z,25.60
2023-05-09T02:16:39.395Z,29.80
2023-05-09T02:19:09.055Z,29.23
2023-05-09T02:21:37.387Z,26.27
2023-05-09T02:24:05.987Z,30.87
2023-05-09T02:26:34.441Z,27.20
2023-05-09T02:29:03.948Z,24.53
2023-05-09T02:31:32.615Z,25.30
2023-05-09T02:34:01.208Z,24.70
2023-05-09T02:36:31.578Z,24.27
2023-05-09T02:39:02.500Z,24.87
2023-05-09T02:41:31.865Z,25.00
2023-05-09T02:44:00.077Z,25.10
2023-05-09T02:46:28.450Z,24.90
2023-05-09T02:48:57.077Z,21.83
2023-05-09T02:51:25.282Z,20.77
2023-05-09T02:53:57.584Z,22.63
2023-05-09T02:56:26.015Z,24.47
2023-05-09T02:58:54.220Z,25.60
2023-05-09T03:01:22.522Z,23.30
2023-05-09T03:03:51.225Z,23.57
2023-05-09T03:06:20.581Z,25.63
2023-05-09T03:08:48.762Z,23.50
2023-05-09T03:11:18.357Z,24.00
2023-05-09T03:13:46.563Z,22.37
2023-05-09T03:16:15.658Z,25.07
2023-05-09T03:18:43.948Z,22.97
2023-05-09T03:21:12.363Z,23.43
2023-05-09T03:23:40.703Z,26.20
2023-05-09T03:26:08.924Z,22.53
2023-05-09T03:28:38.526Z,28.10
2023-05-09T03:31:06.969Z,29.40
2023-05-09T03:33:35.310Z,27.00
2023-05-09T03:36:03.523Z,28.93
2023-05-09T03:38:31.806Z,30.10
2023-05-09T03:41:00.142Z,26.53
2023-05-09T03:43:28.347Z,27.50
2023-05-09T03:45:57.950Z,28.43
2023-05-09T03:48:26.191Z,28.73
2023-05-09T03:50:54.456Z,31.17
2023-05-09T03:53:23.045Z,24.07
2023-05-09T03:55:51.321Z,28.90
2023-05-09T03:58:20.584Z,28.63
2023-05-09T04:00:48.849Z,25.20
2023-05-09T04:03:18.522Z,26.03
2023-05-09T04:05:46.835Z,24.80
2023-05-09T04:08:15.545Z,26.77
2023-05-09T04:10:45.255Z,25.97
2023-05-09T04:13:14.603Z,26.40
2023-05-09T04:15:42.848Z,26.40
2023-05-09T04:18:11.115Z,25.00
2023-05-09T04:20:40.760Z,24.40
2023-05-09T04:23:11.051Z,26.13
2023-05-09T04:25:39.262Z,28.27
2023-05-09T04:28:08.364Z,29.63
2023-05-09T04:30:37.138Z,26.47
2023-05-09T04:33:05.734Z,29.53
2023-05-09T04:35:34.041Z,19.93
2023-05-09T04:38:04.801Z,24.40
2023-05-09T04:40:33.270Z,22.20
2023-05-09T04:43:01.545Z,21.13
2023-05-09T04:45:30.839Z,23.27
2023-05-09T04:47:59.100Z,27.07
2023-05-09T04:50:27.358Z,27.07
2023-05-09T04:52:55.567Z,27.50
2023-05-09T04:55:25.157Z,26.10
2023-05-09T04:57:53.411Z,25.37
2023-05-09T05:00:21.725Z,23.90
2023-05-09T05:02:50.044Z,25.07
2023-05-09T05:05:24.632Z,23.93
2023-05-09T05:07:54.170Z,26.63
2023-05-09T05:10:22.423Z,23.90
2023-05-09T05:12:51.986Z,25.63
2023-05-09T05:15:20.439Z,24.30
2023-05-09T05:17:48.773Z,26.53
2023-05-09T05:20:22.272Z,25.20
2023-05-09T05:22:50.494Z,27.23
2023-05-09T05:25:18.754Z,25.37
2023-05-09T05:27:46.972Z,23.77
2023-05-09T05:30:16.849Z,25.17
2023-05-09T05:32:45.145Z,23.17
2023-05-09T05:35:13.795Z,23.77
2023-05-09T05:37:42.870Z,23.13
2023-05-09T05:40:11.468Z,22.33
2023-05-09T05:42:39.736Z,23.80
2023-05-09T05:45:08.943Z,24.77
2023-05-09T05:47:38.990Z,21.90
2023-05-09T05:50:11.689Z,20.60
2023-05-09T05:52:40.003Z,18.77
2023-05-09T05:55:08.674Z,22.80
2023-05-09T05:57:37.768Z,19.30
2023-05-09T06:00:09.050Z,18.90
2023-05-09T06:02:39.116Z,18.70
2023-05-09T06:05:08.475Z,19.87
2023-05-09T06:07:36.778Z,18.67
2023-05-09T06:10:05.721Z,17.50
2023-05-09T06:12:33.909Z,17.13
2023-05-09T06:15:02.096Z,17.30
2023-05-09T06:17:30.414Z,18.77
2023-05-09T06:20:00.025Z,18.83
2023-05-09T06:22:28.292Z,17.90
2023-05-09T06:24:56.510Z,17.30
2023-05-09T06:27:24.806Z,16.77
2023-05-09T06:29:53.391Z,18.00
2023-05-09T06:32:21.659Z,17.47
2023-05-09T06:34:49.917Z,18.30
2023-05-09T06:37:19.526Z,16.90
2023-05-09T06:39:47.716Z,17.00
2023-05-09T06:42:16.478Z,15.73
2023-05-09T06:44:44.778Z,14.43
2023-05-09T06:47:13.015Z,13.53
2023-05-09T06:49:41.249Z,13.07
2023-05-09T06:52:09.476Z,13.40
2023-05-09T06:54:39.034Z,12.00
2023-05-09T06:57:07.306Z,12.57
2023-05-09T06:59:35.502Z,11.90
2023-05-09T07:02:03.885Z,13.30
2023-05-09T07:04:32.244Z,13.07
2023-05-09T07:07:01.199Z,12.50
2023-05-09T07:09:29.424Z,12.93
2023-05-09T07:11:58.978Z,11.97
2023-05-09T07:14:27.402Z,12.40
2023-05-09T07:17:05.101Z,12.80
2023-05-09T07:19:38.394Z,13.97
2023-05-09T07:22:06.624Z,14.93
2023-05-09T07:24:35.887Z,13.97
2023-05-09T07:27:06.103Z,14.63
2023-05-09T07:29:34.379Z,14.00
2023-05-09T07:32:02.687Z,11.80
2023-05-09T07:34:30.954Z,11.53
2023-05-09T07:36:59.357Z,9.70
2023-05-09T07:39:27.679Z,11.20
2023-05-09T07:41:55.962Z,11.10
2023-05-09T07:44:25.816Z,10.97
2023-05-09T07:46:55.418Z,11.03
2023-05-09T07:49:23.792Z,9.83
2023-05-09T07:51:51.981Z,9.93
2023-05-09T07:54:20.350Z,11.40
2023-05-09T07:56:48.548Z,11.03
2023-05-09T07:59:17.074Z,10.20
2023-05-09T08:01:46.693Z,9.13
2023-05-09T08:04:15.007Z,8.60
2023-05-09T08:06:43.263Z,9.13
2023-05-09T08:09:11.545Z,8.90
2023-05-09T08:11:40.087Z,10.87
2023-05-09T08:14:08.362Z,9.47
2023-05-09T08:16:36.627Z,8.57
2023-05-09T08:19:06.383Z,8.93
2023-05-09T08:21:34.574Z,9.33
2023-05-09T08:24:02.935Z,9.63
2023-05-09T08:26:31.124Z,8.53
2023-05-09T08:28:59.362Z,9.90
2023-05-09T08:31:27.938Z,10.13
2023-05-09T08:33:56.252Z,10.20
2023-05-09T08:36:26.080Z,9.60
2023-05-09T08:38:54.333Z,10.37
2023-05-09T08:41:27.943Z,10.60
2023-05-09T08:43:58.107Z,6.70
2023-05-09T08:46:28.686Z,6.13
2023-05-09T08:48:57.704Z,5.90
2023-05-09T08:51:27.423Z,6.40
2023-05-09T08:53:55.913Z,6.03
2023-05-09T08:56:24.365Z,5.93
2023-05-09T08:58:53.488Z,7.00
2023-05-09T09:01:22.368Z,6.73
2023-05-09T09:03:51.030Z,6.83
2023-05-09T09:06:19.370Z,6.60
2023-05-09T09:08:49.920Z,6.70
2023-05-09T09:11:19.842Z,6.83
2023-05-09T09:13:48.453Z,5.83
2023-05-09T09:16:22.467Z,6.20
2023-05-09T09:18:53.469Z,7.47
2023-05-09T09:21:22.479Z,6.40
2023-05-09T09:23:53.695Z,6.07
2023-05-09T09:26:22.313Z,6.70
2023-05-09T09:28:50.579Z,6.43
2023-05-09T09:31:22.686Z,6.57
2023-05-09T09:33:51.250Z,6.03
2023-05-09T09:36:28.312Z,4.70
2023-05-09T09:39:01.452Z,4.80
2023-05-09T09:41:33.395Z,7.57
2023-05-09T09:44:07.827Z,9.03
2023-05-09T09:46:45.816Z,7.63
2023-05-09T09:49:14.563Z,7.47
2023-05-09T09:51:43.012Z,8.30
2023-05-09T09:54:13.146Z,6.90
2023-05-09T09:56:42.171Z,7.67
2023-05-09T09:59:11.291Z,6.73
2023-05-09T10:01:55.380Z,5.50
2023-05-09T10:04:23.688Z,5.20
2023-05-09T10:06:55.700Z,5.10
2023-05-09T10:09:25.764Z,4.60
2023-05-09T10:11:54.527Z,4.60
2023-05-09T10:14:23.716Z,4.20
2023-05-09T10:16:53.581Z,5.00
2023-05-09T10:19:22.873Z,5.33
2023-05-09T10:21:52.701Z,4.70
2023-05-09T10:24:24.344Z,5.70
2023-05-09T10:26:54.797Z,5.87
2023-05-09T10:29:25.852Z,5.90
2023-05-09T10:31:56.245Z,5.63
2023-05-09T10:34:26.836Z,4.70
2023-05-09T10:36:55.861Z,5.20
2023-05-09T10:39:24.365Z,5.37
2023-05-09T10:41:54.344Z,5.20
2023-05-09T10:44:23.561Z,4.43
2023-05-09T10:46:51.999Z,5.03
2023-05-09T10:49:20.563Z,4.37
2023-05-09T10:51:51.191Z,5.40
2023-05-09T10:54:30.690Z,4.60
2023-05-09T10:57:00.778Z,4.77
2023-05-09T10:59:37.372Z,6.20
2023-05-09T11:02:06.058Z,5.73
2023-05-09T11:04:34.478Z,4.43
2023-05-09T11:07:02.714Z,6.60
2023-05-09T11:09:33.107Z,5.10
2023-05-09T11:12:12.895Z,5.30
2023-05-09T11:14:42.377Z,5.80
2023-05-09T11:17:11.501Z,6.20
2023-05-09T11:19:58.614Z,5.90
2023-05-09T11:22:28.027Z,5.50
2023-05-09T11:25:01.642Z,5.30
2023-05-09T11:27:38.405Z,5.30
2023-05-09T11:30:07.631Z,4.97
2023-05-09T11:32:36.832Z,5.47
2023-05-09T11:35:09.531Z,5.60
2023-05-09T11:37:41.731Z,4.90
2023-05-09T11:40:13.865Z,5.30
2023-05-09T11:42:45.570Z,5.87
2023-05-09T11:45:14.503Z,6.20
2023-05-09T11:47:43.085Z,5.33
2023-05-09T11:50:11.998Z,5.63
2023-05-09T11:52:40.888Z,6.13
2023-05-09T11:55:12.070Z,5.70
2023-05-09T11:57:41.927Z,5.60
2023-05-09T12:00:12.775Z,5.87
2023-05-09T12:02:41.400Z,5.97
2023-05-09T12:05:11.769Z,5.90
2023-05-09T12:07:40.475Z,6.13
2023-05-09T12:10:09.683Z,6.60
2023-05-09T12:12:38.206Z,6.90
2023-05-09T12:15:08.889Z,6.00
2023-05-09T12:17:38.755Z,5.60
2023-05-09T12:20:07.603Z,6.07
2023-05-09T12:22:37.412Z,7.00
2023-05-09T12:25:08.393Z,6.93
2023-05-09T12:27:36.936Z,6.93
2023-05-09T12:30:08.532Z,6.80
2023-05-09T12:32:39.135Z,6.90
2023-05-09T12:35:11.213Z,6.60
2023-05-09T12:37:39.710Z,5.93
2023-05-09T12:40:08.744Z,5.67
2023-05-09T12:42:37.635Z,6.13
2023-05-09T12:45:06.599Z,5.80
2023-05-09T12:47:34.898Z,6.00
2023-05-09T12:50:04.238Z,6.83
2023-05-09T12:52:39.735Z,5.63
2023-05-09T12:55:15.787Z,5.70
2023-05-09T12:57:44.221Z,5.80
2023-05-09T13:00:13.203Z,5.67
2023-05-09T13:02:42.545Z,5.20
2023-05-09T13:05:11.393Z,5.10
2023-05-09T13:07:44.468Z,5.80
2023-05-09T13:10:13.986Z,6.20
2023-05-09T13:12:45.003Z,6.33
2023-05-09T13:15:14.470Z,5.70
2023-05-09T13:17:43.134Z,5.13
2023-05-09T13:20:11.698Z,5.77
2023-05-09T13:22:39.923Z,5.33
2023-05-09T13:25:10.715Z,5.10
2023-05-09T13:27:39.298Z,4.47
2023-05-09T13:30:08.550Z,4.30
2023-05-09T13:32:37.463Z,4.70
2023-05-09T13:35:07.972Z,4.90
2023-05-09T13:37:36.259Z,4.00
2023-05-09T13:40:05.396Z,4.00
2023-05-09T13:42:35.844Z,2.97
2023-05-09T13:45:04.383Z,3.70
2023-05-09T13:47:32.946Z,3.17
2023-05-09T13:50:01.184Z,3.73
2023-05-09T13:52:29.447Z,3.03
2023-05-09T13:54:58.246Z,3.37
2023-05-09T13:57:26.464Z,2.60
2023-05-09T13:59:55.998Z,2.90
2023-05-09T14:02:24.572Z,2.80
2023-05-09T14:04:53.128Z,2.73
2023-05-09T14:07:21.714Z,2.37
2023-05-09T14:09:54.040Z,2.67
2023-05-09T14:12:27.153Z,2.90
2023-05-09T14:14:56.743Z,2.80
2023-05-09T14:17:25.001Z,3.47
2023-05-09T14:19:53.218Z,2.70
2023-05-09T14:22:21.562Z,2.63
2023-05-09T14:24:50.345Z,3.43
2023-05-09T14:27:18.564Z,3.20
2023-05-09T14:29:46.846Z,3.50
2023-05-09T14:32:16.856Z,3.23
2023-05-09T14:34:45.669Z,2.73
2023-05-09T14:37:14.538Z,3.37
2023-05-09T14:39:43.074Z,3.00
2023-05-09T14:42:11.739Z,2.90
2023-05-09T14:44:40.015Z,2.87
2023-05-09T14:47:09.005Z,3.10
2023-05-09T14:49:39.691Z,3.03
2023-05-09T14:52:07.872Z,3.97
2023-05-09T14:54:36.367Z,2.90
2023-05-09T14:57:05.486Z,2.50
2023-05-09T14:59:36.126Z,2.33
2023-05-09T15:02:05.343Z,1.97
2023-05-09T15:04:33.909Z,2.50
2023-05-09T15:07:03.628Z,1.90
2023-05-09T15:09:31.852Z,2.20
2023-05-09T15:12:00.047Z,2.13
2023-05-09T15:14:28.359Z,1.70
2023-05-09T15:16:59.086Z,1.60
2023-05-09T15:19:31.093Z,2.43
2023-05-09T15:21:59.540Z,1.73
2023-05-09T15:24:29.702Z,1.60
2023-05-09T15:26:57.929Z,1.63
2023-05-09T15:29:26.214Z,2.00
2023-05-09T15:31:55.765Z,1.67
2023-05-09T15:34:23.966Z,2.23
2023-05-09T15:36:52.240Z,1.63
2023-05-09T15:39:20.567Z,1.80
2023-05-09T15:41:50.143Z,1.80
2023-05-09T15:44:18.347Z,1.60
2023-05-09T15:46:46.529Z,1.30
2023-05-09T15:49:14.741Z,1.50
2023-05-09T15:51:43.260Z,1.80
2023-05-09T15:54:11.573Z,2.00
2023-05-09T15:56:39.830Z,2.57
2023-05-09T15:59:09.900Z,1.70
2023-05-09T16:01:38.209Z,1.80
2023-05-09T16:04:07.139Z,2.10
2023-05-09T16:06:35.377Z,2.60
2023-05-09T16:09:04.437Z,2.63
2023-05-09T16:11:33.112Z,2.20
2023-05-09T16:14:01.484Z,2.70
2023-05-09T16:16:31.234Z,2.30
2023-05-09T16:18:59.507Z,2.50
2023-05-09T16:21:29.235Z,1.90
2023-05-09T16:23:58.072Z,2.70
2023-05-09T16:26:26.364Z,2.70
2023-05-09T16:28:54.586Z,2.47
2023-05-09T16:31:26.303Z,2.17
2023-05-09T16:33:56.542Z,2.13
2023-05-09T16:36:24.915Z,2.00
2023-05-09T16:38:53.262Z,1.60
2023-05-09T16:41:21.596Z,1.90
2023-05-09T16:43:50.125Z,2.30
2023-05-09T16:46:18.383Z,1.67
2023-05-09T16:48:46.589Z,1.30
2023-05-09T16:51:16.306Z,1.93
2023-05-09T16:53:44.559Z,1.47
2023-05-09T16:56:12.786Z,1.20
2023-05-09T16:58:41.878Z,1.50
2023-05-09T17:01:10.166Z,1.40
2023-05-09T17:03:38.854Z,1.53
2023-05-09T17:06:07.370Z,1.30
2023-05-09T17:08:36.952Z,1.37
2023-05-09T17:11:05.446Z,1.00
2023-05-09T17:13:33.707Z,1.40
2023-05-09T17:16:01.981Z,1.57
2023-05-09T17:18:37.702Z,1.53
2023-05-09T17:21:06.923Z,1.23
2023-05-09T17:23:36.876Z,1.70
2023-05-09T17:26:05.107Z,1.30
2023-05-09T17:28:33.570Z,1.10
2023-05-09T17:31:03.235Z,1.23
2023-05-09T17:33:31.438Z,1.40
2023-05-09T17:36:00.035Z,1.53
2023-05-09T17:38:28.328Z,1.80
2023-05-09T17:40:58.287Z,1.50
2023-05-09T17:43:28.284Z,1.33
2023-05-09T17:45:56.787Z,1.67
2023-05-09T17:48:25.006Z,1.67
2023-05-09T17:50:53.254Z,1.50
2023-05-09T17:53:21.650Z,1.50
2023-05-09T17:55:49.923Z,1.77
2023-05-09T17:58:20.725Z,1.23
2023-05-09T18:00:49.001Z,1.23
2023-05-09T18:03:17.347Z,1.33
2023-05-09T18:05:45.600Z,1.20
2023-05-09T18:08:13.858Z,0.90
2023-05-09T18:10:42.649Z,0.90
2023-05-09T18:13:11.105Z,1.27
2023-05-09T18:15:41.231Z,0.90
2023-05-09T18:18:10.228Z,1.07
2023-05-09T18:20:39.879Z,1.00
2023-05-09T18:23:08.179Z,1.10
2023-05-09T18:25:36.625Z,1.00
2023-05-09T18:28:04.846Z,1.40
2023-05-09T18:30:33.103Z,1.10
2023-05-09T18:33:02.830Z,1.10
2023-05-09T18:35:31.609Z,0.80
2023-05-09T18:37:59.904Z,1.00
2023-05-09T18:40:28.654Z,1.00
2023-05-09T18:42:56.840Z,1.10
2023-05-09T18:45:25.202Z,0.97
2023-05-09T18:47:53.532Z,1.20
2023-05-09T18:50:23.131Z,1.30
2023-05-09T18:52:51.452Z,1.20
2023-05-09T18:55:21.844Z,1.40
2023-05-09T18:57:50.326Z,1.37
2023-05-09T19:00:18.635Z,1.97
2023-05-09T19:02:46.952Z,1.70
2023-05-09T19:05:15.821Z,1.70
2023-05-09T19:07:45.510Z,1.80
2023-05-09T19:10:14.340Z,1.53
2023-05-09T19:12:42.810Z,1.60
2023-05-09T19:15:12.314Z,2.10
2023-05-09T19:17:40.536Z,2.80
2023-05-09T19:20:09.505Z,1.50
2023-05-09T19:22:39.108Z,2.10
2023-05-09T19:25:09.252Z,1.90
2023-05-09T19:27:37.458Z,1.87
2023-05-09T19:30:05.986Z,1.77
2023-05-09T19:32:34.238Z,2.20
2023-05-09T19:35:02.494Z,1.57
2023-05-09T19:37:30.697Z,2.00
2023-05-09T19:39:58.949Z,1.90
2023-05-09T19:42:28.528Z,2.03
2023-05-09T19:44:56.725Z,2.10
2023-05-09T19:47:24.961Z,2.27
2023-05-09T19:49:53.546Z,1.67
2023-05-09T19:52:23.238Z,2.97
2023-05-09T19:54:51.567Z,2.33
2023-05-09T19:57:20.591Z,2.57
2023-05-09T19:59:51.003Z,3.00
2023-05-09T20:02:19.302Z,2.80
2023-05-09T20:04:49.829Z,2.80
2023-05-09T20:07:18.449Z,2.40
2023-05-09T20:09:46.664Z,3.30
2023-05-09T20:12:14.924Z,3.27
2023-05-09T20:14:44.220Z,3.20
2023-05-09T20:17:13.930Z,3.30
2023-05-09T20:19:43.130Z,3.50
2023-05-09T20:22:11.374Z,3.60
2023-05-09T20:24:39.597Z,3.43
2023-05-09T20:27:07.946Z,3.70
2023-05-09T20:29:36.188Z,3.40
2023-05-09T20:32:04.676Z,4.40
2023-05-09T20:34:34.308Z,4.10
2023-05-09T20:37:02.627Z,2.60
2023-05-09T20:39:30.848Z,4.30
2023-05-09T20:42:02.257Z,3.30
2023-05-09T20:44:30.722Z,4.17
2023-05-09T20:46:59.027Z,4.87
2023-05-09T20:49:27.263Z,4.43
2023-05-09T20:51:56.875Z,4.80
2023-05-09T20:54:25.093Z,3.50
2023-05-09T20:56:53.509Z,4.67
2023-05-09T20:59:21.759Z,6.13
2023-05-09T21:01:52.112Z,6.27
2023-05-09T21:04:20.354Z,5.83
2023-05-09T21:06:48.566Z,5.70
2023-05-09T21:09:18.411Z,5.80
2023-05-09T21:11:46.592Z,5.10
2023-05-09T21:14:14.845Z,5.80
2023-05-09T21:16:44.010Z,5.67
2023-05-09T21:19:12.346Z,5.67
2023-05-09T21:21:40.605Z,5.97
2023-05-09T21:24:09.791Z,6.00
2023-05-09T21:26:39.330Z,7.27
2023-05-09T21:29:07.633Z,5.87
2023-05-09T21:31:35.879Z,6.33
2023-05-09T21:34:09.631Z,6.23
2023-05-09T21:36:38.406Z,6.73
2023-05-09T21:39:09.196Z,7.60
2023-05-09T21:41:39.351Z,6.97
2023-05-09T21:44:08.485Z,7.57
2023-05-09T21:46:36.852Z,7.67
2023-05-09T21:49:05.764Z,8.50
2023-05-09T21:51:34.065Z,9.20
2023-05-09T21:54:02.316Z,7.70
2023-05-09T21:56:30.724Z,9.13
2023-05-09T21:59:00.268Z,7.90
2023-05-09T22:01:28.742Z,6.90
2023-05-09T22:03:57.092Z,7.93
2023-05-09T22:06:25.323Z,7.77
2023-05-09T22:08:53.502Z,8.60
2023-05-09T22:11:22.196Z,8.20
2023-05-09T22:13:50.494Z,10.00
2023-05-09T22:16:20.152Z,7.73
2023-05-09T22:18:48.383Z,10.10
2023-05-09T22:21:16.619Z,10.93
2023-05-09T22:23:44.878Z,9.87
2023-05-09T22:26:13.119Z,10.47
2023-05-09T22:28:41.424Z,10.13
2023-05-09T22:31:09.634Z,9.40
2023-05-09T22:33:39.240Z,11.53
2023-05-09T22:36:08.752Z,11.90
2023-05-09T22:38:37.006Z,9.80
2023-05-09T22:41:05.274Z,10.07
2023-05-09T22:43:38.715Z,6.90
2023-05-09T22:46:08.086Z,11.77
2023-05-09T22:48:36.359Z,10.30
2023-05-09T22:51:05.913Z,12.13
2023-05-09T22:53:34.199Z,10.53
2023-05-09T22:56:02.763Z,12.97
2023-05-09T22:58:30.986Z,11.10
2023-05-09T23:00:59.192Z,11.53
2023-05-09T23:03:27.516Z,12.60
2023-05-09T23:05:55.792Z,9.10
2023-05-09T23:08:25.433Z,11.60
2023-05-09T23:10:53.631Z,10.90
2023-05-09T23:13:22.322Z,10.13
2023-05-09T23:15:50.576Z,10.53
2023-05-09T23:18:20.935Z,11.03
2023-05-09T23:20:49.128Z,9.50
2023-05-09T23:23:17.645Z,8.67
2023-05-09T23:25:47.226Z,11.37
2023-05-09T23:28:15.468Z,10.00
2023-05-09T23:30:43.821Z,10.20
2023-05-09T23:33:12.224Z,6.97
2023-05-09T23:35:40.471Z,6.90
2023-05-09T23:38:08.734Z,6.17
2023-05-09T23:40:37.002Z,6.13
2023-05-09T23:43:06.587Z,6.73
2023-05-09T23:45:34.799Z,6.53
2023-05-09T23:48:03.186Z,7.17
2023-05-09T23:50:31.459Z,7.40
2023-05-09T23:52:59.713Z,9.37
2023-05-09T23:55:27.942Z,10.33
2023-05-09T23:57:56.189Z,10.20
